Time;durP1;ratioP1;P1;durP2;ratioP2;P2;SDS_P1;SDS_P2;PMS_P1;PMS_P2;Temp;Humidity;BMP_temperature;BMP_pressure;BME280_temperature;BME280_humidity;BME280_pressure;Samples;Min_cycle;Max_cycle;Signal;HPM_P1;HPM_P2
2023/04/10 00:00:22;;;;;;;31.47;21.30;;;;;;;;;;5053814;27;20466;-71
2023/04/10 00:02:52;;;;;;;30.27;19.40;;;;;;;;;;5054240;27;20937;-70
2023/04/10 00:05:21;;;;;;;30.90;20.20;;;;;;;;;;5053793;27;20981;-71
2023/04/10 00:07:50;;;;;;;30.63;18.70;;;;;;;;;;5053559;27;20623;-70
2023/04/10 00:10:20;;;;;;;30.30;19.47;;;;;;;;;;5058262;27;20449;-70
2023/04/10 00:12:49;;;;;;;30.73;20.77;;;;;;;;;;5057366;27;20837;-70
2023/04/10 00:15:18;;;;;;;31.20;18.93;;;;;;;;;;5055277;27;20450;-70
2023/04/10 00:17:49;;;;;;;29.23;19.10;;;;;;;;;;5052942;27;20725;-71
2023/04/10 00:20:26;;;;;;;27.37;19.90;;;;;;;;;;5061197;27;20454;-71
2023/04/10 00:22:55;;;;;;;29.30;18.17;;;;;;;;;;5058886;27;20442;-70
2023/04/10 00:25:25;;;;;;;33.40;20.30;;;;;;;;;;5061254;27;20494;-69
2023/04/10 00:27:57;;;;;;;31.40;19.67;;;;;;;;;;5067342;27;20566;-69
2023/04/10 00:30:24;;;;;;;30.87;20.60;;;;;;;;;;5055610;27;20463;-70
2023/04/10 00:32:53;;;;;;;30.90;18.53;;;;;;;;;;5059299;27;20548;-69
2023/04/10 00:35:22;;;;;;;28.37;21.20;;;;;;;;;;5059023;27;20456;-69
2023/04/10 00:37:56;;;;;;;25.57;18.43;;;;;;;;;;5056630;27;20544;-69
2023/04/10 00:40:24;;;;;;;29.40;18.90;;;;;;;;;;5058479;27;20433;-69
2023/04/10 00:42:52;;;;;;;22.93;17.00;;;;;;;;;;5063871;27;20536;-70
2023/04/10 00:45:19;;;;;;;33.80;19.50;;;;;;;;;;5052653;27;20492;-71
2023/04/10 00:47:47;;;;;;;32.63;18.40;;;;;;;;;;5051288;27;20641;-70
2023/04/10 00:50:22;;;;;;;27.37;18.13;;;;;;;;;;5056684;27;20454;-70
2023/04/10 00:52:50;;;;;;;30.90;19.80;;;;;;;;;;5049267;27;20462;-71
2023/04/10 00:55:20;;;;;;;31.00;19.60;;;;;;;;;;5051891;27;20533;-70
2023/04/10 00:57:47;;;;;;;35.13;19.80;;;;;;;;;;5062171;27;20438;-70
2023/04/10 01:00:18;;;;;;;28.73;17.60;;;;;;;;;;5052355;27;20468;-70
2023/04/10 01:02:46;;;;;;;30.03;17.70;;;;;;;;;;5050694;27;20580;-71
2023/04/10 01:05:15;;;;;;;29.17;18.10;;;;;;;;;;5051284;27;20480;-70
2023/04/10 01:07:55;;;;;;;31.20;19.13;;;;;;;;;;5031862;28;20895;-70
2023/04/10 01:10:28;;;;;;;27.23;17.70;;;;;;;;;;5032955;28;20535;-70
2023/04/10 01:13:04;;;;;;;29.00;17.60;;;;;;;;;;5032673;28;20454;-71
2023/04/10 01:15:34;;;;;;;26.40;18.43;;;;;;;;;;5037913;28;20461;-70
2023/04/10 01:18:04;;;;;;;27.50;17.97;;;;;;;;;;5058304;27;20485;-71
2023/04/10 01:20:34;;;;;;;33.27;18.50;;;;;;;;;;5085573;27;20461;-70
2023/04/10 01:23:19;;;;;;;24.17;17.20;;;;;;;;;;5056601;27;20445;-70
2023/04/10 01:25:50;;;;;;;31.13;17.20;;;;;;;;;;5057077;27;20445;-70
2023/04/10 01:28:25;;;;;;;32.43;18.10;;;;;;;;;;5056948;27;20486;-70
2023/04/10 01:30:56;;;;;;;28.93;17.33;;;;;;;;;;5059521;27;20453;-70
2023/04/10 01:33:28;;;;;;;28.87;16.90;;;;;;;;;;5060121;27;20456;-70
2023/04/10 01:35:56;;;;;;;30.27;17.53;;;;;;;;;;5058051;27;20520;-70
2023/04/10 01:38:25;;;;;;;33.03;20.10;;;;;;;;;;5061566;27;20525;-70
2023/04/10 01:40:54;;;;;;;28.90;18.23;;;;;;;;;;5061164;27;20453;-70
2023/04/10 01:43:23;;;;;;;29.80;20.37;;;;;;;;;;5061779;27;20452;-70
2023/04/10 01:45:53;;;;;;;30.13;17.40;;;;;;;;;;5059356;27;20461;-70
2023/04/10 01:48:36;;;;;;;26.97;16.93;;;;;;;;;;5064663;28;20757;-70
2023/04/10 01:51:05;;;;;;;27.97;17.40;;;;;;;;;;5065607;27;20719;-70
2023/04/10 01:53:37;;;;;;;27.13;17.77;;;;;;;;;;5066973;27;20513;-69
2023/04/10 01:56:05;;;;;;;25.23;16.97;;;;;;;;;;5063159;27;20469;-71
2023/04/10 01:58:32;;;;;;;27.10;18.10;;;;;;;;;;5063827;27;20446;-70
2023/04/10 02:01:00;;;;;;;31.53;18.00;;;;;;;;;;5058878;27;20478;-70
2023/04/10 02:03:30;;;;;;;28.60;18.30;;;;;;;;;;5062702;27;21030;-71
2023/04/10 02:06:03;;;;;;;30.00;17.83;;;;;;;;;;5054503;27;20480;-71
2023/04/10 02:08:35;;;;;;;32.23;19.13;;;;;;;;;;5064772;27;20488;-70
2023/04/10 02:11:04;;;;;;;27.43;17.80;;;;;;;;;;5068384;27;20449;-70
2023/04/10 02:13:38;;;;;;;28.07;18.67;;;;;;;;;;5063422;27;20477;-71
2023/04/10 02:16:07;;;;;;;26.63;17.83;;;;;;;;;;5066036;27;20524;-71
2023/04/10 02:18:40;;;;;;;28.40;19.70;;;;;;;;;;5059215;27;20457;-71
2023/04/10 02:21:09;;;;;;;30.13;20.87;;;;;;;;;;5066763;27;20469;-71
2023/04/10 02:23:39;;;;;;;31.10;18.17;;;;;;;;;;5061615;27;20518;-70
2023/04/10 02:26:08;;;;;;;29.23;19.10;;;;;;;;;;5067467;27;20453;-70
2023/04/10 02:28:39;;;;;;;28.93;19.17;;;;;;;;;;5065760;27;20485;-71
2023/04/10 02:31:07;;;;;;;28.77;17.47;;;;;;;;;;5066073;27;20454;-70
2023/04/10 02:33:34;;;;;;;34.20;18.73;;;;;;;;;;5059025;27;20795;-70
2023/04/10 02:36:03;;;;;;;28.90;17.93;;;;;;;;;;5056666;27;20469;-70
2023/04/10 02:38:31;;;;;;;29.10;18.67;;;;;;;;;;5055888;27;20462;-70
2023/04/10 02:40:58;;;;;;;27.43;18.17;;;;;;;;;;5057132;27;20829;-70
2023/04/10 02:43:25;;;;;;;29.73;18.63;;;;;;;;;;5054094;27;20545;-70
2023/04/10 02:45:53;;;;;;;26.80;18.50;;;;;;;;;;5052822;27;20456;-70
2023/04/10 02:48:21;;;;;;;27.00;17.30;;;;;;;;;;5052832;27;20482;-70
2023/04/10 02:50:48;;;;;;;34.63;18.87;;;;;;;;;;5052870;27;20457;-71
2023/04/10 02:53:18;;;;;;;32.27;20.33;;;;;;;;;;5050269;27;20454;-71
2023/04/10 02:55:45;;;;;;;28.07;17.70;;;;;;;;;;5037571;27;20454;-71
2023/04/10 02:58:13;;;;;;;29.60;19.10;;;;;;;;;;5052357;27;20541;-70
2023/04/10 03:00:48;;;;;;;26.67;17.30;;;;;;;;;;5052056;27;20798;-71
2023/04/10 03:03:16;;;;;;;30.47;18.77;;;;;;;;;;5032325;28;20871;-71
2023/04/10 03:05:45;;;;;;;29.30;19.60;;;;;;;;;;5032637;28;20482;-70
2023/04/10 03:08:13;;;;;;;27.83;18.40;;;;;;;;;;5032415;28;20515;-70
2023/04/10 03:10:48;;;;;;;28.33;18.40;;;;;;;;;;5034367;28;20862;-70
2023/04/10 03:13:16;;;;;;;24.87;17.57;;;;;;;;;;5034971;28;20469;-70
2023/04/10 03:15:44;;;;;;;30.97;18.37;;;;;;;;;;5035352;28;20462;-70
2023/04/10 03:18:11;;;;;;;30.63;19.60;;;;;;;;;;5034414;28;20495;-71
2023/04/10 03:20:44;;;;;;;27.13;18.00;;;;;;;;;;5034959;28;20489;-70
2023/04/10 03:23:11;;;;;;;33.47;18.67;;;;;;;;;;5034208;27;20457;-70
2023/04/10 03:25:40;;;;;;;28.03;20.03;;;;;;;;;;5032918;28;20484;-70
2023/04/10 03:28:09;;;;;;;33.67;19.33;;;;;;;;;;5032123;28;20451;-70
2023/04/10 03:30:36;;;;;;;37.77;20.73;;;;;;;;;;5033753;28;20475;-70
2023/04/10 03:33:04;;;;;;;29.53;19.00;;;;;;;;;;5033112;28;20451;-70
2023/04/10 03:35:32;;;;;;;27.47;17.47;;;;;;;;;;5033408;28;20727;-70
2023/04/10 03:37:59;;;;;;;31.53;17.70;;;;;;;;;;5050438;27;20711;-70
2023/04/10 03:40:27;;;;;;;32.17;19.83;;;;;;;;;;5055262;27;20700;-70
2023/04/10 03:42:54;;;;;;;32.10;20.50;;;;;;;;;;5055517;27;20458;-70
2023/04/10 03:45:23;;;;;;;26.43;17.17;;;;;;;;;;5053778;27;20477;-70
2023/04/10 03:47:50;;;;;;;29.83;18.50;;;;;;;;;;5054230;27;20470;-71
2023/04/10 03:50:18;;;;;;;31.80;17.00;;;;;;;;;;5045244;27;20781;-71
2023/04/10 03:52:48;;;;;;;27.60;17.30;;;;;;;;;;5035051;28;20840;-70
2023/04/10 03:55:17;;;;;;;26.20;16.80;;;;;;;;;;5034067;28;20531;-70
2023/04/10 03:57:45;;;;;;;28.70;18.63;;;;;;;;;;5033906;28;20533;-71
2023/04/10 04:00:17;;;;;;;30.10;18.77;;;;;;;;;;5033389;28;20451;-70
2023/04/10 04:02:46;;;;;;;30.70;18.27;;;;;;;;;;5032956;28;20442;-71
2023/04/10 04:05:14;;;;;;;31.80;19.03;;;;;;;;;;5031693;28;20962;-71
2023/04/10 04:07:42;;;;;;;29.87;18.37;;;;;;;;;;5032353;28;20450;-71
2023/04/10 04:10:10;;;;;;;33.60;19.07;;;;;;;;;;5032081;28;21137;-71
2023/04/10 04:12:38;;;;;;;29.57;18.20;;;;;;;;;;5033413;28;20470;-70
2023/04/10 04:15:05;;;;;;;32.30;18.30;;;;;;;;;;5034646;28;20542;-71
2023/04/10 04:17:33;;;;;;;29.70;18.80;;;;;;;;;;5038594;27;20462;-70
2023/04/10 04:20:05;;;;;;;30.17;18.17;;;;;;;;;;5041061;27;20468;-71
2023/04/10 04:22:32;;;;;;;27.67;18.40;;;;;;;;;;5050615;27;21011;-71
2023/04/10 04:25:00;;;;;;;29.47;17.20;;;;;;;;;;5049364;27;20490;-71
2023/04/10 04:27:28;;;;;;;33.30;19.30;;;;;;;;;;5051967;27;20891;-71
2023/04/10 04:29:55;;;;;;;35.30;19.53;;;;;;;;;;5034251;27;20599;-71
2023/04/10 04:32:22;;;;;;;38.03;18.40;;;;;;;;;;5036759;27;20459;-70
2023/04/10 04:34:50;;;;;;;32.70;19.37;;;;;;;;;;5032786;28;20458;-70
2023/04/10 04:37:19;;;;;;;28.47;18.10;;;;;;;;;;5033244;28;20447;-71
2023/04/10 04:39:49;;;;;;;32.97;20.10;;;;;;;;;;5035965;27;20444;-71
2023/04/10 04:42:20;;;;;;;31.17;19.37;;;;;;;;;;5051602;27;20466;-71
2023/04/10 04:44:47;;;;;;;31.00;18.00;;;;;;;;;;5047222;27;20502;-71
2023/04/10 04:47:15;;;;;;;26.40;16.33;;;;;;;;;;5032432;28;20826;-70
2023/04/10 04:49:43;;;;;;;35.20;20.50;;;;;;;;;;5031549;28;20483;-71
2023/04/10 04:52:11;;;;;;;34.13;20.40;;;;;;;;;;5032378;28;20450;-70
2023/04/10 04:54:40;;;;;;;26.90;18.90;;;;;;;;;;5031274;28;20478;-70
2023/04/10 04:57:08;;;;;;;31.60;19.00;;;;;;;;;;5030659;27;20811;-70
2023/04/10 04:59:37;;;;;;;26.40;16.53;;;;;;;;;;5045947;27;20489;-70
2023/04/10 05:02:04;;;;;;;34.70;19.33;;;;;;;;;;5037051;27;20463;-70
2023/04/10 05:04:32;;;;;;;35.90;18.80;;;;;;;;;;5031259;28;20494;-70
2023/04/10 05:06:59;;;;;;;30.07;18.73;;;;;;;;;;5049114;27;20816;-70
2023/04/10 05:09:26;;;;;;;29.40;17.73;;;;;;;;;;5040626;27;20491;-70
2023/04/10 05:11:55;;;;;;;29.93;20.30;;;;;;;;;;5038857;27;20578;-70
2023/04/10 05:14:23;;;;;;;32.23;20.27;;;;;;;;;;5043806;27;20550;-70
2023/04/10 05:16:50;;;;;;;34.97;18.33;;;;;;;;;;5051028;27;20585;-70
2023/04/10 05:19:18;;;;;;;30.97;18.83;;;;;;;;;;5048170;27;20542;-70
2023/04/10 05:21:45;;;;;;;31.30;19.40;;;;;;;;;;5036119;28;20482;-71
2023/04/10 05:24:12;;;;;;;27.10;17.70;;;;;;;;;;5036027;28;20848;-70
2023/04/10 05:26:40;;;;;;;32.23;19.73;;;;;;;;;;5041766;27;20470;-69
2023/04/10 05:29:09;;;;;;;30.87;19.57;;;;;;;;;;5036949;28;20562;-70
2023/04/10 05:31:37;;;;;;;28.37;18.20;;;;;;;;;;5036915;28;20458;-70
2023/04/10 05:34:05;;;;;;;29.70;20.33;;;;;;;;;;5035990;28;20520;-70
2023/04/10 05:36:33;;;;;;;35.80;19.37;;;;;;;;;;5039552;27;20724;-70
2023/04/10 05:39:01;;;;;;;31.03;19.23;;;;;;;;;;5055340;27;20509;-69
2023/04/10 05:41:28;;;;;;;33.93;21.23;;;;;;;;;;5054900;27;20474;-70
2023/04/10 05:43:55;;;;;;;30.60;19.93;;;;;;;;;;5056005;27;20457;-70
2023/04/10 05:46:25;;;;;;;32.93;20.67;;;;;;;;;;5053397;27;20475;-70
2023/04/10 05:48:52;;;;;;;31.07;19.00;;;;;;;;;;5051709;27;20457;-70
2023/04/10 05:51:19;;;;;;;30.60;19.23;;;;;;;;;;5056303;27;20485;-69
2023/04/10 05:53:47;;;;;;;28.40;17.80;;;;;;;;;;5055899;27;20498;-70
2023/04/10 05:56:14;;;;;;;31.40;17.67;;;;;;;;;;5051246;27;20866;-70
2023/04/10 05:58:43;;;;;;;31.90;19.73;;;;;;;;;;5054462;27;20477;-69
2023/04/10 06:03:38;;;;;;;32.70;19.27;;;;;;;;;;5001010;28;20479;-70
2023/04/10 06:06:08;;;;;;;27.60;18.77;;;;;;;;;;5008789;28;20833;-70
2023/04/10 06:08:35;;;;;;;30.00;19.67;;;;;;;;;;4997998;28;20460;-70
2023/04/10 06:11:03;;;;;;;31.47;19.13;;;;;;;;;;4996293;28;20908;-71
2023/04/10 06:13:31;;;;;;;28.17;18.33;;;;;;;;;;4994156;28;20525;-72
2023/04/10 06:15:59;;;;;;;28.10;17.57;;;;;;;;;;4994526;28;20540;-72
2023/04/10 06:18:26;;;;;;;28.30;17.27;;;;;;;;;;5012734;28;20464;-72
2023/04/10 06:20:56;;;;;;;27.53;19.07;;;;;;;;;;5013609;28;20462;-71
2023/04/10 06:23:24;;;;;;;27.80;17.80;;;;;;;;;;5106897;28;20502;-70
2023/04/10 06:25:52;;;;;;;27.53;18.73;;;;;;;;;;5118241;28;20462;-70
2023/04/10 06:28:20;;;;;;;29.80;18.10;;;;;;;;;;5116980;28;20451;-70
2023/04/10 06:30:47;;;;;;;26.70;17.90;;;;;;;;;;5109746;28;20491;-71
2023/04/10 06:33:15;;;;;;;30.87;18.80;;;;;;;;;;5111701;28;20452;-70
2023/04/10 06:35:42;;;;;;;30.90;17.47;;;;;;;;;;5105220;28;20458;-70
2023/04/10 06:38:12;;;;;;;27.77;18.10;;;;;;;;;;5116380;28;20457;-70
2023/04/10 06:40:40;;;;;;;28.23;17.80;;;;;;;;;;5118233;28;20510;-71
2023/04/10 06:43:07;;;;;;;24.50;18.07;;;;;;;;;;5115916;27;20460;-70
2023/04/10 06:45:35;;;;;;;31.07;18.10;;;;;;;;;;5097449;28;20546;-70
2023/04/10 06:48:06;;;;;;;23.20;17.33;;;;;;;;;;5096069;28;20494;-69
2023/04/10 06:50:33;;;;;;;60.73;25.63;;;;;;;;;;5097232;28;20505;-69
2023/04/10 06:53:01;;;;;;;27.10;18.10;;;;;;;;;;5096862;28;20463;-69
2023/04/10 06:55:30;;;;;;;26.40;17.90;;;;;;;;;;5096856;28;20448;-70
2023/04/10 06:57:59;;;;;;;28.23;18.20;;;;;;;;;;5112957;27;20439;-69
2023/04/10 07:00:34;;;;;;;26.50;15.73;;;;;;;;;;5138566;27;20450;-71
2023/04/10 07:03:04;;;;;;;24.93;16.60;;;;;;;;;;5127378;27;20561;-70
2023/04/10 07:05:34;;;;;;;27.47;18.60;;;;;;;;;;5116979;28;20469;-70
2023/04/10 07:08:04;;;;;;;24.23;16.67;;;;;;;;;;5118223;27;20451;-71
2023/04/10 07:10:36;;;;;;;26.10;17.20;;;;;;;;;;5112117;28;20493;-68
2023/04/10 07:13:06;;;;;;;25.90;16.10;;;;;;;;;;5115488;28;20586;-69
2023/04/10 07:15:34;;;;;;;24.10;16.50;;;;;;;;;;5113505;28;20858;-69
2023/04/10 07:18:01;;;;;;;25.63;18.17;;;;;;;;;;5115368;28;20866;-69
2023/04/10 07:20:37;;;;;;;26.10;18.43;;;;;;;;;;5116142;28;20447;-69
2023/04/10 07:23:04;;;;;;;31.53;17.80;;;;;;;;;;5114160;28;20905;-69
2023/04/10 07:25:32;;;;;;;28.43;18.90;;;;;;;;;;5112806;28;20471;-69
2023/04/10 07:28:01;;;;;;;24.53;16.50;;;;;;;;;;5115722;27;20826;-69
2023/04/10 07:30:45;;;;;;;26.10;17.37;;;;;;;;;;5113097;28;20493;-69
2023/04/10 07:33:13;;;;;;;25.23;16.03;;;;;;;;;;5111143;28;20766;-69
2023/04/10 07:35:52;;;;;;;22.57;14.73;;;;;;;;;;5112471;28;20544;-70
2023/04/10 07:38:24;;;;;;;20.97;14.80;;;;;;;;;;5110984;28;20443;-69
2023/04/10 07:41:02;;;;;;;24.10;15.37;;;;;;;;;;5112796;28;20680;-71
2023/04/10 07:43:34;;;;;;;29.10;16.57;;;;;;;;;;5109689;28;20451;-70
2023/04/10 07:46:03;;;;;;;23.70;15.60;;;;;;;;;;5112918;28;20443;-70
2023/04/10 07:48:46;;;;;;;21.27;15.10;;;;;;;;;;5113348;28;20454;-69
2023/04/10 07:51:19;;;;;;;21.20;15.33;;;;;;;;;;5111829;27;20474;-70
2023/04/10 07:53:46;;;;;;;21.20;16.47;;;;;;;;;;5110855;28;20480;-70
2023/04/10 07:56:20;;;;;;;18.63;13.40;;;;;;;;;;5112162;27;20446;-71
2023/04/10 07:59:00;;;;;;;19.57;13.70;;;;;;;;;;5109073;28;20809;-69
2023/04/10 08:01:29;;;;;;;19.73;14.03;;;;;;;;;;5111650;28;20500;-69
2023/04/10 08:03:59;;;;;;;17.80;12.97;;;;;;;;;;5108268;28;20778;-70
2023/04/10 08:06:27;;;;;;;18.10;13.03;;;;;;;;;;5108007;27;20482;-71
2023/04/10 08:08:57;;;;;;;19.17;13.10;;;;;;;;;;5110486;28;20467;-70
2023/04/10 08:11:27;;;;;;;21.77;14.27;;;;;;;;;;5113301;28;20864;-70
2023/04/10 08:13:57;;;;;;;19.50;12.60;;;;;;;;;;5113992;27;20827;-70
2023/04/10 08:16:29;;;;;;;15.97;11.90;;;;;;;;;;5110917;27;20479;-71
2023/04/10 08:19:00;;;;;;;19.40;13.43;;;;;;;;;;5112372;28;20432;-70
2023/04/10 08:21:31;;;;;;;19.10;13.53;;;;;;;;;;5110152;28;20486;-69
2023/04/10 08:24:00;;;;;;;18.23;13.80;;;;;;;;;;5110953;28;20446;-69
2023/04/10 08:26:28;;;;;;;17.23;13.00;;;;;;;;;;5107942;27;20549;-69
2023/04/10 08:28:58;;;;;;;17.23;12.33;;;;;;;;;;5111935;28;20520;-70
2023/04/10 08:31:44;;;;;;;24.37;14.97;;;;;;;;;;5111414;28;20501;-70
2023/04/10 08:34:19;;;;;;;15.80;13.80;;;;;;;;;;5139964;27;20483;-71
2023/04/10 08:36:50;;;;;;;17.70;13.87;;;;;;;;;;5154221;27;20505;-70
2023/04/10 08:39:18;;;;;;;14.93;11.40;;;;;;;;;;5153137;27;20518;-71
2023/04/10 08:41:54;;;;;;;17.23;12.90;;;;;;;;;;5151045;27;20445;-70
2023/04/10 08:44:35;;;;;;;19.60;13.23;;;;;;;;;;5152184;27;20449;-71
2023/04/10 08:47:09;;;;;;;18.60;12.53;;;;;;;;;;5154180;27;20449;-70
2023/04/10 08:49:43;;;;;;;15.07;11.80;;;;;;;;;;5151506;27;20957;-70
2023/04/10 08:52:18;;;;;;;20.40;12.97;;;;;;;;;;5131588;27;20494;-71
2023/04/10 08:54:49;;;;;;;15.87;12.47;;;;;;;;;;5108139;28;20458;-70
2023/04/10 08:57:19;;;;;;;16.77;12.30;;;;;;;;;;5108514;28;20514;-69
2023/04/10 08:59:50;;;;;;;18.90;13.10;;;;;;;;;;5103944;28;20883;-69
2023/04/10 09:02:18;;;;;;;16.00;11.87;;;;;;;;;;5110362;28;20466;-71
2023/04/10 09:04:49;;;;;;;14.63;11.73;;;;;;;;;;5090682;28;20731;-71
2023/04/10 09:07:17;;;;;;;15.57;11.63;;;;;;;;;;5111355;28;20449;-70
2023/04/10 09:09:47;;;;;;;12.30;9.87;;;;;;;;;;5103790;28;20741;-70
2023/04/10 09:35:20;;;;;;;11.90;9.17;;;;;;;;;;5074980;28;21157;-71
2023/04/10 09:41:44;;;;;;;12.77;10.43;;;;;;;;;;5034974;28;20446;-70
2023/04/10 09:53:23;;;;;;;12.70;10.53;;;;;;;;;;4949409;29;21073;-71
2023/04/10 09:56:26;;;;;;;11.93;9.33;;;;;;;;;;4981680;28;20594;-71
2023/04/10 10:05:49;;;;;;;11.13;9.30;;;;;;;;;;4970636;28;20468;-71
2023/04/10 10:08:16;;;;;;;16.27;12.13;;;;;;;;;;5029402;28;20459;-71
2023/04/10 10:10:47;;;;;;;11.73;8.70;;;;;;;;;;5012589;28;20483;-72
2023/04/10 10:13:17;;;;;;;11.07;9.23;;;;;;;;;;5010441;28;20467;-71
2023/04/10 10:15:47;;;;;;;9.77;8.07;;;;;;;;;;5012513;28;20995;-72
2023/04/10 10:18:19;;;;;;;11.73;9.37;;;;;;;;;;5011244;28;21091;-71
2023/04/10 10:20:52;;;;;;;11.50;8.93;;;;;;;;;;5031034;27;20505;-71
2023/04/10 10:23:20;;;;;;;11.63;8.57;;;;;;;;;;5114311;27;20443;-71
2023/04/10 10:25:47;;;;;;;10.40;9.00;;;;;;;;;;5032206;28;20475;-71
2023/04/10 10:28:17;;;;;;;10.47;7.50;;;;;;;;;;5031754;28;20907;-72
2023/04/10 10:30:45;;;;;;;13.90;10.00;;;;;;;;;;5031892;28;20494;-71
2023/04/10 10:33:13;;;;;;;9.20;7.43;;;;;;;;;;5030969;28;20477;-71
2023/04/10 10:35:41;;;;;;;10.90;7.93;;;;;;;;;;5031467;28;21018;-71
2023/04/10 10:38:13;;;;;;;11.90;8.10;;;;;;;;;;5031835;28;20459;-71
2023/04/10 10:40:49;;;;;;;19.53;11.70;;;;;;;;;;5031352;28;20745;-71
2023/04/10 10:43:25;;;;;;;12.70;8.93;;;;;;;;;;5023924;28;20475;-71
2023/04/10 10:45:57;;;;;;;10.50;8.50;;;;;;;;;;5033570;28;20465;-70
2023/04/10 10:48:28;;;;;;;8.77;7.57;;;;;;;;;;5031793;28;20451;-71
2023/04/10 10:50:57;;;;;;;8.90;6.37;;;;;;;;;;5033235;28;20483;-71
2023/04/10 10:53:37;;;;;;;8.10;6.47;;;;;;;;;;5032776;28;20909;-70
2023/04/10 10:56:31;;;;;;;11.00;7.60;;;;;;;;;;5033358;28;20471;-70
2023/04/10 10:59:00;;;;;;;10.70;7.53;;;;;;;;;;4985798;28;20454;-71
2023/04/10 11:01:28;;;;;;;7.90;6.00;;;;;;;;;;5032781;28;20447;-71
2023/04/10 11:03:55;;;;;;;8.90;6.77;;;;;;;;;;5030918;28;20542;-70
2023/04/10 11:06:44;;;;;;;10.83;7.23;;;;;;;;;;5029533;28;20516;-71
2023/04/10 11:09:47;;;;;;;7.67;5.97;;;;;;;;;;5019685;28;20470;-72
2023/04/10 11:12:21;;;;;;;7.40;6.33;;;;;;;;;;5031528;28;20597;-71
2023/04/10 11:14:57;;;;;;;7.27;6.00;;;;;;;;;;5033433;27;20457;-70
2023/04/10 11:17:43;;;;;;;8.00;5.83;;;;;;;;;;5018419;28;20913;-71
2023/04/10 11:20:18;;;;;;;8.80;6.07;;;;;;;;;;5008336;28;20543;-71
2023/04/10 11:23:04;;;;;;;11.30;6.70;;;;;;;;;;5008789;28;20455;-71
2023/04/10 11:28:44;;;;;;;8.60;6.70;;;;;;;;;;5084907;27;20993;-71
2023/04/10 11:31:18;;;;;;;6.73;5.43;;;;;;;;;;5083955;28;20587;-72
2023/04/10 11:33:48;;;;;;;7.87;6.50;;;;;;;;;;5084688;28;20502;-70
2023/04/10 11:36:17;;;;;;;8.53;6.27;;;;;;;;;;5083052;28;20459;-70
2023/04/10 11:38:55;;;;;;;7.40;5.53;;;;;;;;;;5086325;28;20440;-71
2023/04/10 11:41:32;;;;;;;8.60;4.77;;;;;;;;;;5089848;28;20461;-70
2023/04/10 11:44:02;;;;;;;5.77;4.90;;;;;;;;;;5088121;28;20511;-70
2023/04/10 11:46:33;;;;;;;8.23;5.67;;;;;;;;;;5069969;28;20559;-70
2023/04/10 11:49:01;;;;;;;10.63;6.10;;;;;;;;;;5084246;28;20441;-71
2023/04/10 11:51:31;;;;;;;6.70;4.50;;;;;;;;;;5082973;28;20463;-72
2023/04/10 11:54:07;;;;;;;8.27;6.10;;;;;;;;;;5077072;28;20499;-71
2023/04/10 11:56:34;;;;;;;9.17;5.70;;;;;;;;;;5082482;28;20471;-70
2023/04/10 11:59:09;;;;;;;6.60;5.17;;;;;;;;;;5083282;28;20550;-71
2023/04/10 12:01:37;;;;;;;9.70;6.77;;;;;;;;;;5084335;28;20451;-71
2023/04/10 12:04:16;;;;;;;8.90;8.00;;;;;;;;;;5085687;28;20652;-71
2023/04/10 12:06:50;;;;;;;6.57;4.77;;;;;;;;;;5082494;28;20453;-70
2023/04/10 12:09:22;;;;;;;9.17;6.77;;;;;;;;;;5066955;28;20650;-71
2023/04/10 12:11:51;;;;;;;16.40;8.87;;;;;;;;;;5127042;27;20864;-71
2023/04/10 12:14:23;;;;;;;13.97;9.77;;;;;;;;;;5126916;27;20672;-71
2023/04/10 12:16:51;;;;;;;6.90;5.07;;;;;;;;;;5126318;27;20458;-72
2023/04/10 12:19:20;;;;;;;7.77;5.23;;;;;;;;;;5125042;27;20519;-71
2023/04/10 12:21:51;;;;;;;7.83;4.60;;;;;;;;;;5125856;27;20489;-71
2023/04/10 12:24:33;;;;;;;6.93;4.50;;;;;;;;;;5125679;27;20462;-71
2023/04/10 12:27:01;;;;;;;6.10;5.50;;;;;;;;;;5127351;27;20606;-70
2023/04/10 12:29:31;;;;;;;9.10;5.57;;;;;;;;;;5126752;27;20450;-71
2023/04/10 12:31:58;;;;;;;9.37;5.70;;;;;;;;;;5123520;27;20768;-71
2023/04/10 12:34:27;;;;;;;6.77;4.70;;;;;;;;;;5125334;27;20494;-71
2023/04/10 12:36:55;;;;;;;10.03;6.87;;;;;;;;;;5125724;27;20484;-71
2023/04/10 12:39:23;;;;;;;6.23;5.03;;;;;;;;;;5115603;27;20451;-71
2023/04/10 12:41:52;;;;;;;6.30;4.97;;;;;;;;;;5114777;28;20500;-71
2023/04/10 12:44:21;;;;;;;13.17;6.70;;;;;;;;;;5114373;28;20745;-71
2023/04/10 12:46:51;;;;;;;8.27;6.40;;;;;;;;;;5114991;28;20463;-70
2023/04/10 12:49:19;;;;;;;7.73;6.20;;;;;;;;;;5116150;28;20499;-70
2023/04/10 12:51:55;;;;;;;6.70;6.00;;;;;;;;;;5116041;28;20944;-72
2023/04/10 12:54:31;;;;;;;8.40;5.47;;;;;;;;;;5098510;28;20819;-71
2023/04/10 12:56:59;;;;;;;7.17;5.50;;;;;;;;;;5110777;28;20677;-70
2023/04/10 12:59:27;;;;;;;8.80;6.30;;;;;;;;;;5111652;28;20547;-70
2023/04/10 13:01:57;;;;;;;9.60;6.17;;;;;;;;;;5115662;28;21046;-70
2023/04/10 13:04:24;;;;;;;7.90;5.80;;;;;;;;;;5113308;28;20557;-70
2023/04/10 13:06:52;;;;;;;7.90;5.60;;;;;;;;;;5113373;28;20938;-70
2023/04/10 13:09:23;;;;;;;7.67;5.73;;;;;;;;;;5094317;28;20480;-70
2023/04/10 13:11:52;;;;;;;9.40;7.30;;;;;;;;;;5095649;28;20456;-70
2023/04/10 13:14:20;;;;;;;7.53;5.40;;;;;;;;;;5095676;28;20472;-70
2023/04/10 13:16:51;;;;;;;11.53;7.90;;;;;;;;;;5111327;28;20482;-70
2023/04/10 13:19:20;;;;;;;10.87;7.57;;;;;;;;;;5107323;28;20503;-70
2023/04/10 13:21:49;;;;;;;7.63;6.57;;;;;;;;;;5103913;27;20467;-71
2023/04/10 13:24:29;;;;;;;12.77;8.30;;;;;;;;;;5109603;28;20455;-70
2023/04/10 13:26:57;;;;;;;12.70;9.27;;;;;;;;;;5092213;28;20498;-70
2023/04/10 13:29:25;;;;;;;11.40;7.13;;;;;;;;;;5108355;28;20705;-70
2023/04/10 13:31:52;;;;;;;10.33;7.97;;;;;;;;;;5111768;28;20467;-70
2023/04/10 13:34:27;;;;;;;10.50;8.00;;;;;;;;;;5113128;28;20878;-70
2023/04/10 13:36:54;;;;;;;10.83;8.63;;;;;;;;;;5113255;28;20455;-70
2023/04/10 13:39:29;;;;;;;8.87;5.60;;;;;;;;;;5112783;27;20513;-70
2023/04/10 13:42:02;;;;;;;13.17;7.40;;;;;;;;;;5112819;28;20431;-70
2023/04/10 13:44:39;;;;;;;11.00;8.40;;;;;;;;;;5109834;28;20458;-71
2023/04/10 13:47:06;;;;;;;9.67;7.23;;;;;;;;;;5097624;28;20476;-71
2023/04/10 13:49:37;;;;;;;9.13;7.40;;;;;;;;;;5094632;28;20705;-70
2023/04/10 13:52:16;;;;;;;8.60;7.50;;;;;;;;;;5110854;28;20467;-71
2023/04/10 13:54:44;;;;;;;10.60;7.47;;;;;;;;;;5111330;28;20453;-70
2023/04/10 13:57:37;;;;;;;12.30;6.80;;;;;;;;;;5113362;28;21004;-70
2023/04/10 14:00:06;;;;;;;9.17;7.40;;;;;;;;;;5113372;28;20569;-70
2023/04/10 14:02:34;;;;;;;11.53;8.27;;;;;;;;;;5115241;28;20451;-69
2023/04/10 14:05:04;;;;;;;11.80;7.80;;;;;;;;;;5113094;28;20760;-69
2023/04/10 14:07:33;;;;;;;9.63;6.90;;;;;;;;;;5110943;28;20825;-70
2023/04/10 14:10:00;;;;;;;12.20;9.40;;;;;;;;;;5110825;28;20540;-69
2023/04/10 14:12:28;;;;;;;11.03;7.90;;;;;;;;;;5112124;28;20455;-70
2023/04/10 14:14:58;;;;;;;14.20;9.40;;;;;;;;;;5113395;28;20447;-69
2023/04/10 14:17:26;;;;;;;11.20;8.50;;;;;;;;;;5110808;28;21133;-71
2023/04/10 14:19:54;;;;;;;9.80;7.67;;;;;;;;;;5107970;28;20455;-71
2023/04/10 14:22:25;;;;;;;10.10;7.57;;;;;;;;;;5106127;28;20463;-69
2023/04/10 14:24:54;;;;;;;10.93;7.23;;;;;;;;;;5107621;28;20469;-71
2023/04/10 14:27:22;;;;;;;10.37;7.83;;;;;;;;;;5102649;28;20933;-72
2023/04/10 14:29:50;;;;;;;10.70;7.60;;;;;;;;;;5108454;28;20634;-70
2023/04/10 14:32:17;;;;;;;10.40;6.30;;;;;;;;;;5105057;28;20453;-70
2023/04/10 14:34:45;;;;;;;10.83;7.40;;;;;;;;;;5108638;28;20478;-70
2023/04/10 14:37:12;;;;;;;7.60;5.90;;;;;;;;;;5109142;28;20504;-70
2023/04/10 14:39:41;;;;;;;10.37;6.23;;;;;;;;;;5103753;28;20534;-70
2023/04/10 14:42:09;;;;;;;7.83;6.20;;;;;;;;;;5104268;28;20440;-70
2023/04/10 14:44:39;;;;;;;5.60;4.53;;;;;;;;;;5101412;28;20554;-71
2023/04/10 14:47:16;;;;;;;6.30;4.47;;;;;;;;;;5109029;28;20475;-71
2023/04/10 14:49:53;;;;;;;6.97;5.23;;;;;;;;;;5108762;28;20451;-69
2023/04/10 14:52:24;;;;;;;6.90;4.97;;;;;;;;;;5109098;28;20439;-69
2023/04/10 14:54:58;;;;;;;5.87;4.13;;;;;;;;;;5110371;28;20442;-70
2023/04/10 14:57:28;;;;;;;9.00;7.13;;;;;;;;;;5110452;28;20532;-69
2023/04/10 15:00:00;;;;;;;7.50;4.90;;;;;;;;;;5110907;28;20485;-69
2023/04/10 15:02:31;;;;;;;8.87;4.97;;;;;;;;;;5111453;28;20455;-69
2023/04/10 15:05:08;;;;;;;6.03;4.50;;;;;;;;;;5111723;28;21012;-69
2023/04/10 15:07:36;;;;;;;7.80;5.13;;;;;;;;;;5112602;28;20443;-69
2023/04/10 15:10:22;;;;;;;9.53;6.43;;;;;;;;;;5111751;28;20562;-70
2023/04/10 15:12:57;;;;;;;8.13;6.23;;;;;;;;;;5109471;28;20459;-71
2023/04/10 15:15:47;;;;;;;7.07;5.00;;;;;;;;;;5107462;28;20462;-70
2023/04/10 15:19:00;;;;;;;6.63;5.00;;;;;;;;;;5110610;28;20553;-71
2023/04/10 15:21:27;;;;;;;9.07;5.70;;;;;;;;;;5098293;28;20935;-70
2023/04/10 15:24:04;;;;;;;8.20;5.80;;;;;;;;;;5103254;27;20460;-71
2023/04/10 15:26:33;;;;;;;8.37;6.20;;;;;;;;;;5091966;28;20520;-72
2023/04/10 15:29:02;;;;;;;11.20;7.07;;;;;;;;;;5089721;28;20575;-71
2023/04/10 15:31:29;;;;;;;13.97;9.37;;;;;;;;;;5097948;28;20701;-71